createdAt,value
2022-12-08T00:01:19.585Z,21.67
2022-12-08T00:03:47.339Z,21.40
2022-12-08T00:06:41.791Z,21.90
2022-12-08T00:09:32.027Z,21.73
2022-12-08T00:12:03.546Z,20.80
2022-12-08T00:14:32.898Z,19.70
2022-12-08T00:17:00.391Z,21.00
2022-12-08T00:19:27.640Z,18.70
2022-12-08T00:21:55.348Z,19.33
2022-12-08T00:24:23.490Z,18.53
2022-12-08T00:26:50.099Z,19.87
2022-12-08T00:29:17.892Z,19.50
2022-12-08T00:31:45.022Z,17.73
2022-12-08T00:34:15.806Z,19.20
2022-12-08T00:36:43.156Z,17.43
2022-12-08T00:39:11.173Z,18.10
2022-12-08T00:41:56.506Z,16.23
2022-12-08T00:44:23.254Z,17.90
2022-12-08T00:46:49.974Z,16.90
2022-12-08T00:49:17.743Z,18.83
2022-12-08T00:51:44.749Z,18.87
2022-12-08T00:54:12.009Z,18.10
2022-12-08T00:56:39.640Z,20.83
2022-12-08T00:59:06.987Z,20.87
2022-12-08T01:01:34.747Z,22.20
2022-12-08T01:04:11.477Z,22.00
2022-12-08T01:06:38.954Z,21.07
2022-12-08T01:09:06.621Z,22.30
2022-12-08T01:11:33.474Z,23.20
2022-12-08T01:13:59.955Z,24.40
2022-12-08T01:16:30.158Z,23.93
2022-12-08T01:18:58.049Z,22.93
2022-12-08T01:21:28.082Z,24.37
2022-12-08T01:23:55.441Z,24.30
2022-12-08T01:26:22.314Z,23.63
2022-12-08T01:28:48.896Z,22.83
2022-12-08T01:31:17.672Z,22.87
2022-12-08T01:33:44.607Z,23.23
2022-12-08T01:36:32.151Z,23.50
2022-12-08T01:39:00.774Z,22.30
2022-12-08T01:41:33.166Z,20.87
2022-12-08T01:44:01.624Z,21.90
2022-12-08T01:46:33.356Z,21.23
2022-12-08T01:49:04.344Z,21.70
2022-12-08T01:51:33.604Z,20.70
2022-12-08T01:54:00.753Z,23.03
2022-12-08T01:56:56.602Z,20.53
2022-12-08T01:59:24.585Z,20.10
2022-12-08T02:01:51.913Z,22.10
2022-12-08T02:04:18.588Z,21.10
2022-12-08T02:06:46.195Z,21.80
2022-12-08T02:09:13.074Z,21.37
2022-12-08T02:11:39.591Z,21.83
2022-12-08T02:14:08.318Z,19.57
2022-12-08T02:16:56.088Z,21.67
2022-12-08T02:19:31.780Z,21.40
2022-12-08T02:22:30.704Z,19.63
2022-12-08T02:25:09.170Z,19.70
2022-12-08T02:27:49.951Z,20.20
2022-12-08T02:30:44.217Z,19.70
2022-12-08T02:33:25.925Z,18.50
2022-12-08T02:36:12.543Z,18.37
2022-12-08T02:38:56.117Z,18.57
2022-12-08T02:41:33.748Z,17.67
2022-12-08T02:44:08.703Z,16.83
2022-12-08T02:46:42.466Z,17.53
2022-12-08T02:49:09.694Z,18.47
2022-12-08T02:51:36.244Z,18.57
2022-12-08T02:54:03.732Z,19.30
2022-12-08T02:57:00.507Z,19.03
2022-12-08T02:59:40.801Z,18.70
2022-12-08T03:02:16.660Z,18.27
2022-12-08T03:05:06.336Z,19.30
2022-12-08T03:07:39.201Z,18.50
2022-12-08T03:10:43.685Z,20.07
2022-12-08T03:13:13.879Z,19.37
2022-12-08T03:15:41.908Z,20.10
2022-12-08T03:18:11.206Z,19.63
2022-12-08T03:20:38.947Z,18.23
2022-12-08T03:23:08.843Z,19.37
2022-12-08T03:25:43.630Z,20.67
2022-12-08T03:28:10.363Z,21.93
2022-12-08T03:30:39.673Z,19.87
2022-12-08T03:33:24.723Z,18.37
2022-12-08T03:35:51.829Z,19.53
2022-12-08T03:38:18.497Z,20.50
2022-12-08T03:41:08.996Z,21.20
2022-12-08T03:43:35.694Z,20.17
2022-12-08T03:46:02.460Z,21.30
2022-12-08T03:48:29.022Z,21.57
2022-12-08T03:50:55.599Z,21.57
2022-12-08T03:53:22.070Z,21.10
2022-12-08T03:55:48.525Z,19.10
2022-12-08T03:58:14.984Z,22.83
2022-12-08T04:00:41.458Z,20.07
2022-12-08T04:03:07.968Z,21.40
2022-12-08T04:05:34.773Z,21.10
2022-12-08T04:08:01.477Z,20.43
2022-12-08T04:10:28.143Z,19.90
2022-12-08T04:12:54.666Z,20.57
2022-12-08T04:15:21.414Z,21.10
2022-12-08T04:17:47.950Z,20.23
2022-12-08T04:20:14.524Z,20.13
2022-12-08T04:22:41.009Z,19.60
2022-12-08T04:25:07.905Z,19.57
2022-12-08T04:27:34.447Z,20.30
2022-12-08T04:30:01.034Z,19.83
2022-12-08T04:32:27.536Z,20.23
2022-12-08T04:34:54.099Z,22.20
2022-12-08T04:37:20.639Z,20.50
2022-12-08T04:39:47.244Z,20.57
2022-12-08T04:42:13.697Z,20.05
2022-12-08T04:44:40.223Z,20.63
2022-12-08T04:47:06.797Z,20.27
2022-12-08T04:49:33.549Z,19.27
2022-12-08T04:52:00.073Z,21.13
2022-12-08T04:54:27.004Z,17.97
2022-12-08T04:56:53.595Z,21.40
2022-12-08T04:59:20.069Z,21.53
2022-12-08T05:01:46.722Z,18.60
2022-12-08T05:04:13.307Z,19.30
2022-12-08T05:06:39.779Z,19.63
2022-12-08T05:09:06.265Z,19.00
2022-12-08T05:11:32.802Z,20.47
2022-12-08T05:13:59.542Z,21.17
2022-12-08T05:16:26.059Z,19.10
2022-12-08T05:18:52.623Z,19.50
2022-12-08T05:21:19.157Z,19.60
2022-12-08T05:23:46.112Z,17.90
2022-12-08T05:26:12.929Z,21.50
2022-12-08T05:28:42.290Z,22.37
2022-12-08T05:31:10.821Z,22.20
2022-12-08T05:33:37.356Z,20.40
2022-12-08T05:36:04.154Z,21.43
2022-12-08T05:38:30.761Z,20.80
2022-12-08T05:40:57.251Z,19.27
2022-12-08T05:43:23.803Z,19.27
2022-12-08T05:45:50.615Z,17.83
2022-12-08T05:48:17.240Z,17.47
2022-12-08T05:50:48.113Z,17.23
2022-12-08T05:53:15.979Z,16.77
2022-12-08T05:55:42.702Z,16.20
2022-12-08T05:58:13.601Z,15.77
2022-12-08T06:00:40.717Z,16.47
2022-12-08T06:03:07.811Z,17.60
2022-12-08T06:05:35.243Z,15.60
2022-12-08T06:08:02.107Z,16.50
2022-12-08T06:10:28.972Z,12.70
2022-12-08T06:12:55.496Z,12.73
2022-12-08T06:15:22.012Z,13.73
2022-12-08T06:17:48.849Z,12.93
2022-12-08T06:20:15.506Z,11.90
2022-12-08T06:22:41.994Z,12.27
2022-12-08T06:25:10.270Z,11.67
2022-12-08T06:27:37.043Z,12.03
2022-12-08T06:30:04.216Z,12.63
2022-12-08T06:32:31.253Z,12.10
2022-12-08T06:34:57.821Z,12.57
2022-12-08T06:37:24.374Z,13.90
2022-12-08T06:39:51.741Z,14.07
2022-12-08T06:42:37.165Z,13.23
2022-12-08T06:45:03.952Z,13.87
2022-12-08T06:47:30.614Z,15.07
2022-12-08T06:50:08.301Z,15.57
2022-12-08T06:52:37.710Z,15.17
2022-12-08T06:55:08.425Z,14.00
2022-12-08T06:57:35.500Z,15.43
2022-12-08T07:00:02.829Z,16.67
2022-12-08T07:02:30.273Z,15.33
2022-12-08T07:04:56.851Z,15.93
2022-12-08T07:07:23.393Z,16.10
2022-12-08T07:09:49.934Z,17.47
2022-12-08T07:12:16.467Z,18.90
2022-12-08T07:14:42.976Z,17.33
2022-12-08T07:17:09.484Z,18.20
2022-12-08T07:19:36.506Z,19.47
2022-12-08T07:22:03.036Z,19.00
2022-12-08T07:24:29.585Z,19.30
2022-12-08T07:26:56.151Z,18.37
2022-12-08T07:29:26.186Z,18.87
2022-12-08T07:31:53.073Z,18.80
2022-12-08T07:34:19.558Z,20.33
2022-12-08T07:36:46.104Z,18.87
2022-12-08T07:39:12.637Z,18.67
2022-12-08T07:41:39.192Z,19.43
2022-12-08T07:44:05.740Z,17.70
2022-12-08T07:46:32.288Z,18.23
2022-12-08T07:48:59.133Z,18.77
2022-12-08T07:51:25.618Z,17.10
2022-12-08T07:53:54.503Z,17.60
2022-12-08T07:56:21.902Z,15.27
2022-12-08T07:58:48.559Z,17.00
2022-12-08T08:01:29.221Z,15.90
2022-12-08T08:03:57.399Z,15.20
2022-12-08T08:06:24.248Z,15.93
2022-12-08T08:08:50.953Z,15.53
2022-12-08T08:11:21.356Z,15.20
2022-12-08T08:13:49.473Z,15.37
2022-12-08T08:16:16.128Z,14.27
2022-12-08T08:18:43.509Z,14.70
2022-12-08T08:21:43.074Z,15.20
2022-12-08T08:23:56.719Z,15.43
2022-12-08T08:26:23.274Z,15.00
2022-12-08T08:28:50.125Z,14.10
2022-12-08T08:31:16.730Z,14.60
2022-12-08T08:33:43.241Z,15.10
2022-12-08T08:36:10.223Z,14.43
2022-12-08T08:38:40.158Z,14.53
2022-12-08T08:41:10.961Z,14.33
2022-12-08T08:43:38.700Z,15.00
2022-12-08T08:46:06.673Z,14.17
2022-12-08T08:48:33.457Z,13.97
2022-12-08T08:51:07.674Z,14.97
2022-12-08T08:53:34.284Z,13.50
2022-12-08T08:56:02.916Z,14.17
2022-12-08T08:58:29.686Z,13.80
2022-12-08T09:00:56.437Z,16.30
2022-12-08T09:03:23.027Z,12.87
2022-12-08T09:05:50.595Z,15.33
2022-12-08T09:08:17.732Z,14.90
2022-12-08T09:10:44.487Z,13.70
2022-12-08T09:13:10.973Z,13.63
2022-12-08T09:15:37.540Z,13.93
2022-12-08T09:18:06.608Z,13.97
2022-12-08T09:20:34.453Z,14.47
2022-12-08T09:23:01.317Z,14.60
2022-12-08T09:25:28.689Z,14.90
2022-12-08T09:27:55.239Z,12.23
2022-12-08T09:30:21.775Z,12.63
2022-12-08T09:32:48.400Z,12.47
2022-12-08T09:35:15.432Z,13.60
2022-12-08T09:37:41.951Z,12.70
2022-12-08T09:40:10.786Z,11.63
2022-12-08T09:43:04.784Z,12.43
2022-12-08T09:45:34.416Z,14.00
2022-12-08T09:48:10.211Z,13.63
2022-12-08T09:50:57.023Z,13.60
2022-12-08T09:53:37.874Z,12.97
2022-12-08T09:56:13.525Z,13.70
2022-12-08T09:58:44.331Z,14.27
2022-12-08T10:01:11.563Z,12.70
2022-12-08T10:03:38.126Z,13.83
2022-12-08T10:06:14.310Z,13.97
2022-12-08T10:08:57.103Z,13.90
2022-12-08T10:11:29.704Z,15.80
2022-12-08T10:14:14.873Z,16.30
2022-12-08T10:16:44.766Z,15.40
2022-12-08T10:19:15.654Z,16.00
2022-12-08T10:21:42.647Z,14.73
2022-12-08T10:24:39.425Z,16.97
2022-12-08T10:27:11.542Z,14.73
2022-12-08T10:29:38.753Z,15.00
2022-12-08T10:32:16.343Z,14.83
2022-12-08T10:35:19.179Z,15.83
2022-12-08T10:38:27.744Z,13.77
2022-12-08T10:41:07.361Z,14.37
2022-12-08T10:43:34.722Z,12.73
2022-12-08T10:46:11.098Z,13.83
2022-12-08T10:48:50.916Z,12.77
2022-12-08T10:51:42.878Z,12.30
2022-12-08T10:54:38.293Z,14.10
2022-12-08T10:57:04.841Z,13.50
2022-12-08T10:59:33.894Z,13.77
2022-12-08T11:02:00.851Z,13.77
2022-12-08T11:04:35.280Z,14.13
2022-12-08T11:07:03.308Z,13.50
2022-12-08T11:09:46.652Z,13.60
2022-12-08T11:12:15.035Z,13.60
2022-12-08T11:14:44.677Z,13.20
2022-12-08T11:17:25.309Z,13.57
2022-12-08T11:19:59.306Z,14.07
2022-12-08T11:22:32.422Z,13.93
2022-12-08T11:25:11.654Z,13.37
2022-12-08T11:27:41.185Z,12.47
2022-12-08T11:30:17.636Z,12.00
2022-12-08T11:32:46.626Z,11.53
2022-12-08T11:35:37.926Z,13.27
2022-12-08T11:38:23.378Z,12.90
2022-12-08T11:40:52.510Z,12.97
2022-12-08T11:43:22.073Z,11.83
2022-12-08T11:45:57.775Z,11.20
2022-12-08T11:48:27.341Z,11.10
2022-12-08T11:51:00.367Z,11.13
2022-12-08T11:53:36.134Z,12.00
2022-12-08T11:56:08.526Z,10.13
2022-12-08T11:58:38.356Z,10.90
2022-12-08T12:01:05.156Z,11.07
2022-12-08T12:03:39.037Z,12.87
2022-12-08T12:06:54.335Z,10.40
2022-12-08T12:09:28.823Z,11.10
2022-12-08T12:12:13.779Z,10.30
2022-12-08T12:15:31.989Z,10.83
2022-12-08T12:18:05.708Z,10.50
2022-12-08T12:20:36.802Z,10.77
2022-12-08T12:23:23.550Z,9.90
2022-12-08T12:25:56.462Z,9.33
2022-12-08T12:28:25.102Z,10.60
2022-12-08T12:31:05.445Z,11.03
2022-12-08T12:33:32.900Z,10.03
2022-12-08T12:36:04.043Z,10.87
2022-12-08T12:38:52.601Z,9.97
2022-12-08T12:41:25.716Z,10.90
2022-12-08T12:44:13.831Z,10.37
2022-12-08T12:46:41.004Z,9.73
2022-12-08T12:49:40.232Z,9.83
2022-12-08T12:52:09.663Z,9.40
2022-12-08T12:54:36.176Z,10.60
2022-12-08T12:57:05.723Z,10.43
2022-12-08T13:00:05.345Z,10.63
2022-12-08T13:02:44.109Z,11.27
2022-12-08T13:05:13.474Z,9.93
2022-12-08T13:07:51.027Z,10.70
2022-12-08T13:10:23.694Z,12.50
2022-12-08T13:13:12.656Z,12.57
2022-12-08T13:15:40.095Z,11.50
2022-12-08T13:18:56.450Z,14.10
2022-12-08T13:21:24.479Z,11.13
2022-12-08T13:24:13.918Z,11.13
2022-12-08T13:26:44.557Z,11.53
2022-12-08T13:29:15.387Z,12.20
2022-12-08T13:32:09.842Z,12.80
2022-12-08T13:34:42.223Z,12.40
2022-12-08T13:37:11.810Z,12.13
2022-12-08T13:39:55.638Z,12.50
2022-12-08T13:42:35.932Z,11.80
2022-12-08T13:45:36.268Z,11.00
2022-12-08T13:48:30.255Z,13.47
2022-12-08T13:57:30.616Z,10.53
2022-12-08T14:00:01.419Z,9.63
2022-12-08T14:02:52.417Z,9.97
2022-12-08T14:05:34.831Z,9.20
2022-12-08T14:08:50.468Z,9.70
2022-12-08T14:11:07.086Z,9.10
2022-12-08T14:13:34.079Z,8.90
2022-12-08T14:16:00.753Z,7.87
2022-12-08T14:18:30.509Z,7.80
2022-12-08T14:21:21.925Z,7.83
2022-12-08T14:23:48.741Z,7.60
2022-12-08T14:26:15.251Z,7.23
2022-12-08T14:28:45.064Z,5.07
2022-12-08T14:31:14.086Z,5.40
2022-12-08T14:33:40.761Z,4.87
2022-12-08T14:36:09.624Z,4.97
2022-12-08T14:38:36.297Z,4.10
2022-12-08T14:41:05.628Z,4.47
2022-12-08T14:43:32.632Z,4.80
2022-12-08T14:46:02.321Z,6.03
2022-12-08T14:48:34.833Z,6.03
2022-12-08T14:51:11.980Z,8.73
2022-12-08T14:53:53.662Z,8.87
2022-12-08T14:56:26.937Z,9.80
2022-12-08T14:59:17.898Z,9.43
2022-12-08T15:01:47.508Z,10.23
2022-12-08T15:04:14.675Z,12.17
2022-12-08T15:06:52.479Z,12.10
2022-12-08T15:09:34.485Z,14.77
2022-12-08T15:12:03.858Z,12.10
2022-12-08T15:14:39.664Z,11.67
2022-12-08T15:17:31.771Z,15.90
2022-12-08T15:19:59.841Z,14.63
2022-12-08T15:22:29.169Z,13.90
2022-12-08T15:24:55.945Z,14.20
2022-12-08T15:27:24.026Z,16.03
2022-12-08T15:29:51.036Z,14.00
2022-12-08T15:32:20.009Z,15.00
2022-12-08T15:34:46.535Z,15.87
2022-12-08T15:37:23.846Z,16.77
2022-12-08T15:39:51.222Z,17.47
2022-12-08T15:42:18.044Z,15.67
2022-12-08T15:44:44.505Z,17.23
2022-12-08T15:47:22.438Z,15.67
2022-12-08T15:49:49.882Z,17.17
2022-12-08T15:52:19.689Z,16.70
2022-12-08T15:54:46.755Z,16.33
2022-12-08T16:09:14.152Z,16.40
2022-12-08T16:12:08.819Z,17.30
2022-12-08T16:17:24.507Z,15.60
2022-12-08T16:19:51.330Z,17.37
2022-12-08T16:25:18.723Z,14.50
2022-12-08T16:28:17.432Z,14.80
2022-12-08T16:30:33.893Z,13.63
2022-12-08T16:33:00.440Z,14.40
2022-12-08T16:35:27.102Z,14.87
2022-12-08T16:37:53.622Z,14.63
2022-12-08T16:40:20.255Z,15.70
2022-12-08T16:42:48.541Z,15.27
2022-12-08T16:45:29.560Z,12.80
2022-12-08T16:47:58.715Z,14.77
2022-12-08T16:50:27.199Z,14.30
2022-12-08T16:53:05.880Z,12.47
2022-12-08T16:55:33.550Z,13.03
2022-12-08T16:58:00.437Z,13.10
2022-12-08T17:00:28.593Z,13.60
2022-12-08T17:02:56.612Z,13.17
2022-12-08T17:05:25.347Z,14.67
2022-12-08T17:07:52.911Z,13.97
2022-12-08T17:10:27.164Z,15.07
2022-12-08T17:12:54.540Z,14.90
2022-12-08T17:15:23.221Z,13.93
2022-12-08T17:17:50.398Z,15.93
2022-12-08T17:20:20.182Z,15.57
2022-12-08T17:22:47.077Z,15.50
2022-12-08T17:25:14.017Z,18.10
2022-12-08T17:27:41.159Z,16.03
2022-12-08T17:30:11.842Z,16.73
2022-12-08T17:32:38.655Z,15.57
2022-12-08T17:35:06.117Z,15.40
2022-12-08T17:37:32.877Z,18.47
2022-12-08T17:39:59.406Z,20.17
2022-12-08T17:42:27.267Z,21.13
2022-12-08T17:44:54.706Z,22.07
2022-12-08T17:47:21.901Z,20.73
2022-12-08T17:49:48.862Z,18.77
2022-12-08T17:52:15.370Z,17.10
2022-12-08T17:54:42.000Z,18.47
2022-12-08T17:57:08.574Z,23.80
2022-12-08T17:59:35.256Z,22.47
2022-12-08T18:02:02.327Z,23.07
2022-12-08T18:04:29.008Z,22.33
2022-12-08T18:06:58.147Z,22.10
2022-12-08T18:09:24.912Z,22.60
2022-12-08T18:11:51.431Z,23.13
2022-12-08T18:14:17.938Z,23.93
2022-12-08T18:16:46.158Z,23.63
2022-12-08T18:19:13.842Z,24.73
2022-12-08T18:21:41.573Z,21.83
2022-12-08T18:24:10.645Z,21.10
2022-12-08T18:26:37.196Z,22.67
2022-12-08T18:29:03.979Z,21.50
2022-12-08T18:31:30.535Z,20.87
2022-12-08T18:33:57.345Z,21.90
2022-12-08T18:36:25.239Z,20.80
2022-12-08T18:38:52.920Z,22.27
2022-12-08T18:41:23.594Z,26.07
2022-12-08T18:43:50.397Z,32.87
2022-12-08T18:46:17.313Z,27.70
2022-12-08T18:48:47.230Z,24.20
2022-12-08T18:51:22.199Z,25.63
2022-12-08T18:53:49.150Z,25.80
2022-12-08T18:56:27.583Z,22.87
2022-12-08T18:58:59.978Z,23.33
2022-12-08T19:01:31.336Z,25.13
2022-12-08T19:04:26.854Z,24.60
2022-12-08T19:06:46.040Z,22.17
2022-12-08T19:09:12.778Z,23.13
2022-12-08T19:11:39.692Z,21.73
2022-12-08T19:14:07.275Z,22.13
2022-12-08T19:16:33.854Z,21.33
2022-12-08T19:19:01.008Z,19.10
2022-12-08T19:21:28.547Z,17.83
2022-12-08T19:23:58.362Z,20.30
2022-12-08T19:26:27.424Z,20.10
2022-12-08T19:28:54.197Z,19.53
2022-12-08T19:31:21.123Z,19.17
2022-12-08T19:33:48.037Z,20.37
2022-12-08T19:36:18.336Z,20.20
2022-12-08T19:39:03.919Z,21.47
2022-12-08T19:41:50.013Z,20.00
2022-12-08T19:44:33.980Z,19.13
2022-12-08T19:47:01.679Z,19.70
2022-12-08T19:49:28.668Z,21.80
2022-12-08T19:51:55.697Z,23.70
2022-12-08T19:54:22.817Z,25.00
2022-12-08T19:56:49.776Z,24.20
2022-12-08T19:59:16.635Z,23.87
2022-12-08T20:01:44.146Z,23.30
2022-12-08T20:04:15.306Z,22.50
2022-12-08T20:06:42.193Z,26.00
2022-12-08T20:09:10.421Z,23.20
2022-12-08T20:11:37.648Z,29.87
2022-12-08T20:14:05.707Z,25.53
2022-12-08T20:16:32.472Z,27.30
2022-12-08T20:18:59.524Z,27.30
2022-12-08T20:21:26.357Z,26.90
2022-12-08T20:23:52.996Z,24.50
2022-12-08T20:26:21.920Z,26.97
2022-12-08T20:28:49.068Z,26.97
2022-12-08T20:31:20.288Z,25.47
2022-12-08T20:33:47.269Z,25.90
2022-12-08T20:36:18.563Z,25.27
2022-12-08T20:38:46.564Z,27.30
2022-12-08T20:41:15.908Z,24.93
2022-12-08T20:43:47.090Z,28.00
2022-12-08T20:46:16.539Z,26.30
2022-12-08T20:48:43.881Z,25.00
2022-12-08T20:51:18.442Z,26.87
2022-12-08T20:53:45.825Z,24.77
2022-12-08T20:56:17.933Z,23.73
2022-12-08T20:58:45.141Z,23.40
2022-12-08T21:01:14.948Z,23.87
2022-12-08T21:03:42.316Z,23.90
2022-12-08T21:06:09.343Z,21.63
2022-12-08T21:08:36.960Z,23.97
2022-12-08T21:11:04.459Z,24.73
2022-12-08T21:13:31.469Z,23.57
2022-12-08T21:15:58.452Z,23.97
2022-12-08T21:18:25.706Z,26.00
2022-12-08T21:20:53.204Z,26.77
2022-12-08T21:23:19.899Z,24.70
2022-12-08T21:25:47.398Z,24.40
2022-12-08T21:28:14.237Z,23.97
2022-12-08T21:30:41.486Z,24.43
2022-12-08T21:33:08.269Z,25.23
2022-12-08T21:35:34.898Z,24.07
2022-12-08T21:38:01.566Z,25.83
2022-12-08T21:40:28.284Z,26.43
2022-12-08T21:42:54.879Z,26.73
2022-12-08T21:45:21.974Z,26.70
2022-12-08T21:47:50.009Z,25.50
2022-12-08T21:50:17.255Z,22.73
2022-12-08T21:52:46.056Z,27.83
2022-12-08T21:55:14.078Z,31.10
2022-12-08T21:57:40.983Z,30.93
2022-12-08T22:00:08.718Z,27.43
2022-12-08T22:02:35.767Z,28.10
2022-12-08T22:05:02.804Z,28.27
2022-12-08T22:07:29.344Z,29.17
2022-12-08T22:09:56.038Z,28.73
2022-12-08T22:12:22.960Z,28.73
2022-12-08T22:14:51.011Z,26.97
2022-12-08T22:17:18.687Z,27.17
2022-12-08T22:19:45.389Z,27.07
2022-12-08T22:22:12.147Z,30.70
2022-12-08T22:24:38.679Z,28.80
2022-12-08T22:27:05.275Z,29.90
2022-12-08T22:29:31.954Z,29.30
2022-12-08T22:31:58.456Z,27.50
2022-12-08T22:34:24.937Z,28.03
2022-12-08T22:36:51.598Z,27.40
2022-12-08T22:39:18.404Z,27.60
2022-12-08T22:41:44.878Z,30.00
2022-12-08T22:44:11.984Z,27.33
2022-12-08T22:46:38.621Z,29.60
2022-12-08T22:49:05.248Z,28.73
2022-12-08T22:51:31.757Z,28.67
2022-12-08T22:53:58.254Z,24.63
2022-12-08T22:56:25.071Z,27.53
2022-12-08T22:58:54.782Z,26.40
2022-12-08T23:01:22.566Z,27.20
2022-12-08T23:03:49.400Z,27.10
2022-12-08T23:06:16.337Z,26.17
2022-12-08T23:08:44.020Z,27.73
2022-12-08T23:11:11.134Z,27.20
2022-12-08T23:13:39.386Z,28.43
2022-12-08T23:16:09.855Z,27.80
2022-12-08T23:18:37.481Z,28.60
2022-12-08T23:21:06.398Z,26.23
2022-12-08T23:23:33.026Z,29.60
2022-12-08T23:25:59.690Z,27.80
2022-12-08T23:28:26.341Z,25.87
2022-12-08T23:30:52.991Z,28.40
2022-12-08T23:33:19.735Z,26.17
2022-12-08T23:35:46.343Z,28.10
2022-12-08T23:38:13.159Z,26.93
2022-12-08T23:40:39.684Z,28.57
2022-12-08T23:43:06.240Z,29.23
2022-12-08T23:45:32.980Z,27.13
2022-12-08T23:47:59.609Z,26.90
2022-12-08T23:50:26.645Z,27.93
2022-12-08T23:52:53.135Z,27.10
2022-12-08T23:55:19.969Z,26.47
2022-12-08T23:57:46.475Z,28.20
